Terminal Aerodrome Forecast
Issued by NWS Binghamton, NY

Home | Current Version | Previous Version | Text Only | Print | Product List | Glossary On
Versions: 1 2 3 4 5 6 7 8 9 10 11 12 13 14 15 16 17 18 19 20 21 22 23 24 25 26 27
931
FTUS41 KBGM 211321 AAC
TAFBGM
TAF AMD
KBGM 211321Z 2113/2212 22005KT 1 1/2SM BR SCT001 OVC005
      TEMPO 2113/2116 1/4SM FG OVC001
     FM211600 24005KT 5SM BR OVC005
     FM220100 19005KT 1/4SM FG OVC001=

USA.gov is the U.S. government's official web portal to all federal, state and local government web resources and services.